sensor_id;sensor_type;location;lat;lon;timestamp;P1;durP1;ratioP1;P2;durP2;ratioP2
10244;SDS011;5167;52.164;10.530;2022-09-11T00:00:49;4.55;;;3.95;;
10244;SDS011;5167;52.164;10.530;2022-09-11T00:03:17;4.75;;;3.90;;
10244;SDS011;5167;52.164;10.530;2022-09-11T00:05:44;6.85;;;4.43;;
10244;SDS011;5167;52.164;10.530;2022-09-11T00:08:11;5.80;;;4.25;;
10244;SDS011;5167;52.164;10.530;2022-09-11T00:10:39;5.65;;;4.80;;
10244;SDS011;5167;52.164;10.530;2022-09-11T00:13:07;5.68;;;4.65;;
10244;SDS011;5167;52.164;10.530;2022-09-11T00:15:38;8.50;;;5.00;;
10244;SDS011;5167;52.164;10.530;2022-09-11T00:18:05;5.22;;;4.55;;
10244;SDS011;5167;52.164;10.530;2022-09-11T00:20:32;5.22;;;4.68;;
10244;SDS011;5167;52.164;10.530;2022-09-11T00:22:59;4.80;;;4.30;;
10244;SDS011;5167;52.164;10.530;2022-09-11T00:25:29;7.15;;;4.72;;
10244;SDS011;5167;52.164;10.530;2022-09-11T00:28:05;7.25;;;4.72;;
10244;SDS011;5167;52.164;10.530;2022-09-11T00:30:31;7.22;;;5.00;;
10244;SDS011;5167;52.164;10.530;2022-09-11T00:32:57;7.53;;;5.32;;
10244;SDS011;5167;52.164;10.530;2022-09-11T00:35:23;5.53;;;4.90;;
10244;SDS011;5167;52.164;10.530;2022-09-11T00:37:49;9.30;;;4.82;;
10244;SDS011;5167;52.164;10.530;2022-09-11T00:40:15;5.43;;;4.47;;
10244;SDS011;5167;52.164;10.530;2022-09-11T00:42:42;7.47;;;5.05;;
10244;SDS011;5167;52.164;10.530;2022-09-11T00:45:15;6.80;;;4.63;;
10244;SDS011;5167;52.164;10.530;2022-09-11T00:47:47;6.75;;;4.80;;
10244;SDS011;5167;52.164;10.530;2022-09-11T00:50:16;5.57;;;5.00;;
10244;SDS011;5167;52.164;10.530;2022-09-11T00:52:50;6.80;;;4.50;;
10244;SDS011;5167;52.164;10.530;2022-09-11T00:55:20;6.82;;;4.20;;
10244;SDS011;5167;52.164;10.530;2022-09-11T00:57:55;4.65;;;4.20;;
10244;SDS011;5167;52.164;10.530;2022-09-11T01:00:24;5.68;;;4.20;;
10244;SDS011;5167;52.164;10.530;2022-09-11T01:02:50;6.70;;;4.60;;
10244;SDS011;5167;52.164;10.530;2022-09-11T01:05:17;6.30;;;4.22;;
10244;SDS011;5167;52.164;10.530;2022-09-11T01:07:45;5.25;;;4.72;;
10244;SDS011;5167;52.164;10.530;2022-09-11T01:10:11;6.35;;;4.68;;
10244;SDS011;5167;52.164;10.530;2022-09-11T01:12:43;6.72;;;5.10;;
10244;SDS011;5167;52.164;10.530;2022-09-11T01:15:32;6.68;;;4.38;;
10244;SDS011;5167;52.164;10.530;2022-09-11T01:23:44;7.85;;;4.35;;
10244;SDS011;5167;52.164;10.530;2022-09-11T01:31:53;7.65;;;4.97;;
10244;SDS011;5167;52.164;10.530;2022-09-11T01:34:33;5.18;;;4.07;;
10244;SDS011;5167;52.164;10.530;2022-09-11T01:37:13;6.10;;;4.75;;
10244;SDS011;5167;52.164;10.530;2022-09-11T01:39:48;6.07;;;4.53;;
10244;SDS011;5167;52.164;10.530;2022-09-11T01:42:20;5.25;;;4.60;;
10244;SDS011;5167;52.164;10.530;2022-09-11T01:44:49;8.82;;;4.95;;
10244;SDS011;5167;52.164;10.530;2022-09-11T01:47:18;6.00;;;5.20;;
10244;SDS011;5167;52.164;10.530;2022-09-11T01:52:28;4.75;;;4.20;;
10244;SDS011;5167;52.164;10.530;2022-09-11T01:55:00;5.05;;;4.55;;
10244;SDS011;5167;52.164;10.530;2022-09-11T01:57:36;5.07;;;4.57;;
10244;SDS011;5167;52.164;10.530;2022-09-11T02:00:08;6.68;;;5.30;;
10244;SDS011;5167;52.164;10.530;2022-09-11T02:02:37;7.32;;;5.03;;
10244;SDS011;5167;52.164;10.530;2022-09-11T02:05:07;6.25;;;5.50;;
10244;SDS011;5167;52.164;10.530;2022-09-11T02:07:44;8.10;;;5.78;;
10244;SDS011;5167;52.164;10.530;2022-09-11T02:10:20;8.00;;;6.18;;
10244;SDS011;5167;52.164;10.530;2022-09-11T02:12:51;6.72;;;5.68;;
10244;SDS011;5167;52.164;10.530;2022-09-11T02:15:25;8.55;;;6.28;;
10244;SDS011;5167;52.164;10.530;2022-09-11T02:18:01;8.18;;;6.32;;
10244;SDS011;5167;52.164;10.530;2022-09-11T02:20:29;6.82;;;6.05;;
10244;SDS011;5167;52.164;10.530;2022-09-11T02:22:55;9.50;;;6.15;;
10244;SDS011;5167;52.164;10.530;2022-09-11T02:25:22;8.23;;;6.18;;
10244;SDS011;5167;52.164;10.530;2022-09-11T02:27:48;7.82;;;5.85;;
10244;SDS011;5167;52.164;10.530;2022-09-11T02:30:14;7.82;;;6.70;;
10244;SDS011;5167;52.164;10.530;2022-09-11T02:32:40;11.02;;;6.80;;
10244;SDS011;5167;52.164;10.530;2022-09-11T02:35:08;11.43;;;6.97;;
10244;SDS011;5167;52.164;10.530;2022-09-11T02:40:25;11.80;;;7.45;;
10244;SDS011;5167;52.164;10.530;2022-09-11T02:45:52;14.95;;;7.88;;
10244;SDS011;5167;52.164;10.530;2022-09-11T02:57:10;12.20;;;7.45;;
10244;SDS011;5167;52.164;10.530;2022-09-11T02:59:53;9.05;;;7.45;;
10244;SDS011;5167;52.164;10.530;2022-09-11T03:02:24;12.18;;;9.00;;
10244;SDS011;5167;52.164;10.530;2022-09-11T03:04:51;14.88;;;8.32;;
10244;SDS011;5167;52.164;10.530;2022-09-11T03:07:17;13.05;;;8.52;;
10244;SDS011;5167;52.164;10.530;2022-09-11T03:09:42;14.90;;;9.20;;
10244;SDS011;5167;52.164;10.530;2022-09-11T03:12:08;11.35;;;8.57;;
10244;SDS011;5167;52.164;10.530;2022-09-11T03:14:34;14.77;;;10.15;;
10244;SDS011;5167;52.164;10.530;2022-09-11T03:17:01;15.57;;;9.70;;
10244;SDS011;5167;52.164;10.530;2022-09-11T03:19:27;15.88;;;9.80;;
10244;SDS011;5167;52.164;10.530;2022-09-11T03:21:52;14.68;;;10.38;;
10244;SDS011;5167;52.164;10.530;2022-09-11T03:24:18;18.52;;;11.10;;
10244;SDS011;5167;52.164;10.530;2022-09-11T03:26:44;18.38;;;11.50;;
10244;SDS011;5167;52.164;10.530;2022-09-11T03:29:09;18.90;;;11.65;;
10244;SDS011;5167;52.164;10.530;2022-09-11T03:31:35;19.08;;;10.98;;
10244;SDS011;5167;52.164;10.530;2022-09-11T03:34:01;18.45;;;10.32;;
10244;SDS011;5167;52.164;10.530;2022-09-11T03:36:27;17.58;;;11.23;;
10244;SDS011;5167;52.164;10.530;2022-09-11T03:38:52;21.00;;;12.82;;
10244;SDS011;5167;52.164;10.530;2022-09-11T03:41:19;27.00;;;15.57;;
10244;SDS011;5167;52.164;10.530;2022-09-11T03:43:45;26.52;;;14.45;;
10244;SDS011;5167;52.164;10.530;2022-09-11T03:46:11;24.88;;;14.75;;
10244;SDS011;5167;52.164;10.530;2022-09-11T03:48:37;25.70;;;14.43;;
10244;SDS011;5167;52.164;10.530;2022-09-11T03:51:02;28.10;;;14.88;;
10244;SDS011;5167;52.164;10.530;2022-09-11T03:53:30;30.50;;;15.02;;
10244;SDS011;5167;52.164;10.530;2022-09-11T03:55:57;28.67;;;15.43;;
10244;SDS011;5167;52.164;10.530;2022-09-11T03:58:24;27.90;;;15.15;;
10244;SDS011;5167;52.164;10.530;2022-09-11T04:00:49;27.80;;;14.98;;
10244;SDS011;5167;52.164;10.530;2022-09-11T04:03:15;26.00;;;15.68;;
10244;SDS011;5167;52.164;10.530;2022-09-11T04:05:41;27.90;;;15.50;;
10244;SDS011;5167;52.164;10.530;2022-09-11T04:08:12;27.35;;;15.65;;
10244;SDS011;5167;52.164;10.530;2022-09-11T04:10:38;29.95;;;16.02;;
10244;SDS011;5167;52.164;10.530;2022-09-11T04:13:03;26.42;;;15.13;;
10244;SDS011;5167;52.164;10.530;2022-09-11T04:15:29;28.75;;;15.35;;
10244;SDS011;5167;52.164;10.530;2022-09-11T04:17:56;29.40;;;15.57;;
10244;SDS011;5167;52.164;10.530;2022-09-11T04:20:22;23.50;;;14.38;;
10244;SDS011;5167;52.164;10.530;2022-09-11T04:22:48;25.48;;;14.48;;
10244;SDS011;5167;52.164;10.530;2022-09-11T04:25:14;24.35;;;14.43;;
10244;SDS011;5167;52.164;10.530;2022-09-11T04:27:39;26.08;;;15.00;;
10244;SDS011;5167;52.164;10.530;2022-09-11T04:30:05;31.15;;;15.45;;
10244;SDS011;5167;52.164;10.530;2022-09-11T04:32:31;25.02;;;14.25;;
10244;SDS011;5167;52.164;10.530;2022-09-11T04:34:58;27.60;;;14.90;;
10244;SDS011;5167;52.164;10.530;2022-09-11T04:37:26;28.15;;;14.77;;
10244;SDS011;5167;52.164;10.530;2022-09-11T04:39:52;24.88;;;14.25;;
10244;SDS011;5167;52.164;10.530;2022-09-11T04:42:18;25.10;;;13.95;;
10244;SDS011;5167;52.164;10.530;2022-09-11T04:44:43;23.38;;;14.07;;
10244;SDS011;5167;52.164;10.530;2022-09-11T04:47:10;24.40;;;15.20;;
10244;SDS011;5167;52.164;10.530;2022-09-11T04:49:36;23.05;;;14.20;;
10244;SDS011;5167;52.164;10.530;2022-09-11T04:52:02;21.55;;;13.60;;
10244;SDS011;5167;52.164;10.530;2022-09-11T04:54:30;22.38;;;13.45;;
10244;SDS011;5167;52.164;10.530;2022-09-11T04:56:58;24.20;;;13.98;;
10244;SDS011;5167;52.164;10.530;2022-09-11T04:59:25;23.88;;;13.25;;
10244;SDS011;5167;52.164;10.530;2022-09-11T05:01:51;20.08;;;12.57;;
10244;SDS011;5167;52.164;10.530;2022-09-11T05:04:18;18.98;;;12.60;;
10244;SDS011;5167;52.164;10.530;2022-09-11T05:06:44;22.90;;;13.15;;
10244;SDS011;5167;52.164;10.530;2022-09-11T05:09:12;21.23;;;12.75;;
10244;SDS011;5167;52.164;10.530;2022-09-11T05:11:39;19.17;;;12.68;;
10244;SDS011;5167;52.164;10.530;2022-09-11T05:14:05;18.67;;;11.88;;
10244;SDS011;5167;52.164;10.530;2022-09-11T05:16:30;23.77;;;11.88;;
10244;SDS011;5167;52.164;10.530;2022-09-11T05:18:58;21.35;;;12.18;;
10244;SDS011;5167;52.164;10.530;2022-09-11T05:21:24;19.80;;;12.18;;
10244;SDS011;5167;52.164;10.530;2022-09-11T05:23:52;19.98;;;12.55;;
10244;SDS011;5167;52.164;10.530;2022-09-11T05:26:23;20.33;;;12.60;;
10244;SDS011;5167;52.164;10.530;2022-09-11T05:28:52;18.17;;;10.93;;
10244;SDS011;5167;52.164;10.530;2022-09-11T05:31:19;18.75;;;11.27;;
10244;SDS011;5167;52.164;10.530;2022-09-11T05:33:45;18.60;;;10.60;;
10244;SDS011;5167;52.164;10.530;2022-09-11T05:36:11;18.20;;;10.70;;
10244;SDS011;5167;52.164;10.530;2022-09-11T05:38:38;17.80;;;9.68;;
10244;SDS011;5167;52.164;10.530;2022-09-11T05:41:04;17.65;;;9.93;;
10244;SDS011;5167;52.164;10.530;2022-09-11T05:43:34;14.57;;;8.57;;
10244;SDS011;5167;52.164;10.530;2022-09-11T05:46:00;15.50;;;9.05;;
10244;SDS011;5167;52.164;10.530;2022-09-11T05:48:27;17.30;;;9.32;;
10244;SDS011;5167;52.164;10.530;2022-09-11T05:50:54;14.25;;;8.50;;
10244;SDS011;5167;52.164;10.530;2022-09-11T05:53:23;16.80;;;9.15;;
10244;SDS011;5167;52.164;10.530;2022-09-11T05:55:49;17.58;;;8.65;;
10244;SDS011;5167;52.164;10.530;2022-09-11T05:58:15;18.35;;;8.88;;
10244;SDS011;5167;52.164;10.530;2022-09-11T06:00:42;14.32;;;8.07;;
10244;SDS011;5167;52.164;10.530;2022-09-11T06:03:10;14.02;;;7.93;;
10244;SDS011;5167;52.164;10.530;2022-09-11T06:05:45;14.95;;;7.50;;
10244;SDS011;5167;52.164;10.530;2022-09-11T06:08:11;14.88;;;8.13;;
10244;SDS011;5167;52.164;10.530;2022-09-11T06:10:43;17.67;;;9.38;;
10244;SDS011;5167;52.164;10.530;2022-09-11T06:13:12;15.38;;;7.85;;
10244;SDS011;5167;52.164;10.530;2022-09-11T06:15:48;14.10;;;8.05;;
10244;SDS011;5167;52.164;10.530;2022-09-11T06:18:13;14.73;;;8.20;;
10244;SDS011;5167;52.164;10.530;2022-09-11T06:20:40;17.83;;;9.18;;
10244;SDS011;5167;52.164;10.530;2022-09-11T06:23:07;16.85;;;9.55;;
10244;SDS011;5167;52.164;10.530;2022-09-11T06:25:34;19.52;;;9.75;;
10244;SDS011;5167;52.164;10.530;2022-09-11T06:28:00;20.83;;;10.35;;
10244;SDS011;5167;52.164;10.530;2022-09-11T06:30:26;19.85;;;10.30;;
10244;SDS011;5167;52.164;10.530;2022-09-11T06:32:52;18.83;;;9.32;;
10244;SDS011;5167;52.164;10.530;2022-09-11T06:35:20;20.15;;;8.88;;
10244;SDS011;5167;52.164;10.530;2022-09-11T06:37:47;17.80;;;9.98;;
10244;SDS011;5167;52.164;10.530;2022-09-11T06:40:13;20.00;;;9.60;;
10244;SDS011;5167;52.164;10.530;2022-09-11T06:42:38;19.92;;;9.60;;
10244;SDS011;5167;52.164;10.530;2022-09-11T06:45:04;19.15;;;8.80;;
10244;SDS011;5167;52.164;10.530;2022-09-11T06:47:32;22.55;;;10.25;;
10244;SDS011;5167;52.164;10.530;2022-09-11T06:49:58;20.25;;;10.40;;
10244;SDS011;5167;52.164;10.530;2022-09-11T06:52:23;22.60;;;10.32;;
10244;SDS011;5167;52.164;10.530;2022-09-11T06:54:49;20.48;;;9.23;;
10244;SDS011;5167;52.164;10.530;2022-09-11T06:57:14;20.25;;;9.68;;
10244;SDS011;5167;52.164;10.530;2022-09-11T06:59:40;19.90;;;9.07;;
10244;SDS011;5167;52.164;10.530;2022-09-11T07:02:07;21.00;;;9.15;;
10244;SDS011;5167;52.164;10.530;2022-09-11T07:04:33;21.95;;;10.30;;
10244;SDS011;5167;52.164;10.530;2022-09-11T07:06:59;19.40;;;9.27;;
10244;SDS011;5167;52.164;10.530;2022-09-11T07:09:25;17.83;;;9.00;;
10244;SDS011;5167;52.164;10.530;2022-09-11T07:11:50;18.27;;;8.55;;
10244;SDS011;5167;52.164;10.530;2022-09-11T07:14:16;21.27;;;9.68;;
10244;SDS011;5167;52.164;10.530;2022-09-11T07:16:46;20.40;;;8.93;;
10244;SDS011;5167;52.164;10.530;2022-09-11T07:19:13;18.52;;;10.07;;
10244;SDS011;5167;52.164;10.530;2022-09-11T07:21:39;17.00;;;8.63;;
10244;SDS011;5167;52.164;10.530;2022-09-11T07:24:05;19.58;;;9.27;;
10244;SDS011;5167;52.164;10.530;2022-09-11T07:26:33;21.45;;;9.15;;
10244;SDS011;5167;52.164;10.530;2022-09-11T07:29:00;23.85;;;9.93;;
10244;SDS011;5167;52.164;10.530;2022-09-11T07:31:27;18.52;;;9.40;;
10244;SDS011;5167;52.164;10.530;2022-09-11T07:33:54;17.60;;;9.10;;
10244;SDS011;5167;52.164;10.530;2022-09-11T07:36:24;17.20;;;9.25;;
10244;SDS011;5167;52.164;10.530;2022-09-11T07:38:52;19.17;;;9.25;;
10244;SDS011;5167;52.164;10.530;2022-09-11T07:41:19;18.40;;;8.65;;
10244;SDS011;5167;52.164;10.530;2022-09-11T07:43:46;19.17;;;8.90;;
10244;SDS011;5167;52.164;10.530;2022-09-11T07:46:15;17.85;;;8.85;;
10244;SDS011;5167;52.164;10.530;2022-09-11T07:48:41;17.10;;;8.05;;
10244;SDS011;5167;52.164;10.530;2022-09-11T07:51:08;16.83;;;8.75;;
10244;SDS011;5167;52.164;10.530;2022-09-11T07:53:39;16.95;;;8.38;;
10244;SDS011;5167;52.164;10.530;2022-09-11T07:56:07;16.33;;;8.82;;
10244;SDS011;5167;52.164;10.530;2022-09-11T07:58:34;16.23;;;8.20;;
10244;SDS011;5167;52.164;10.530;2022-09-11T08:01:05;14.25;;;7.90;;
10244;SDS011;5167;52.164;10.530;2022-09-11T08:03:32;18.55;;;9.20;;
10244;SDS011;5167;52.164;10.530;2022-09-11T08:06:00;18.08;;;8.20;;
10244;SDS011;5167;52.164;10.530;2022-09-11T08:08:27;21.63;;;9.27;;
10244;SDS011;5167;52.164;10.530;2022-09-11T08:11:01;16.42;;;8.93;;
10244;SDS011;5167;52.164;10.530;2022-09-11T08:13:28;15.18;;;9.20;;
10244;SDS011;5167;52.164;10.530;2022-09-11T08:15:54;20.88;;;10.27;;
10244;SDS011;5167;52.164;10.530;2022-09-11T08:18:20;21.65;;;10.15;;
10244;SDS011;5167;52.164;10.530;2022-09-11T08:20:46;19.45;;;9.50;;
10244;SDS011;5167;52.164;10.530;2022-09-11T08:23:12;28.52;;;10.90;;
10244;SDS011;5167;52.164;10.530;2022-09-11T08:25:38;23.02;;;10.25;;
10244;SDS011;5167;52.164;10.530;2022-09-11T08:28:04;22.38;;;11.25;;
10244;SDS011;5167;52.164;10.530;2022-09-11T08:30:30;23.85;;;10.82;;
10244;SDS011;5167;52.164;10.530;2022-09-11T08:32:56;21.23;;;11.00;;
10244;SDS011;5167;52.164;10.530;2022-09-11T08:35:23;20.25;;;10.27;;
10244;SDS011;5167;52.164;10.530;2022-09-11T08:37:50;25.13;;;10.32;;
10244;SDS011;5167;52.164;10.530;2022-09-11T08:40:16;26.92;;;11.82;;
10244;SDS011;5167;52.164;10.530;2022-09-11T08:42:42;28.02;;;11.55;;
10244;SDS011;5167;52.164;10.530;2022-09-11T08:45:14;22.10;;;10.82;;
10244;SDS011;5167;52.164;10.530;2022-09-11T08:47:45;25.67;;;12.07;;
10244;SDS011;5167;52.164;10.530;2022-09-11T08:50:17;23.77;;;11.90;;
10244;SDS011;5167;52.164;10.530;2022-09-11T08:52:47;22.85;;;13.27;;
10244;SDS011;5167;52.164;10.530;2022-09-11T08:55:13;32.35;;;12.77;;
10244;SDS011;5167;52.164;10.530;2022-09-11T09:00:27;28.42;;;13.48;;
10244;SDS011;5167;52.164;10.530;2022-09-11T09:05:44;28.77;;;13.07;;
10244;SDS011;5167;52.164;10.530;2022-09-11T09:14:15;26.25;;;13.38;;
10244;SDS011;5167;52.164;10.530;2022-09-11T09:22:17;28.90;;;14.07;;
10244;SDS011;5167;52.164;10.530;2022-09-11T09:24:51;30.92;;;14.23;;
10244;SDS011;5167;52.164;10.530;2022-09-11T09:27:34;34.88;;;14.65;;
10244;SDS011;5167;52.164;10.530;2022-09-11T09:30:05;28.05;;;14.25;;
10244;SDS011;5167;52.164;10.530;2022-09-11T09:32:41;30.33;;;15.82;;
10244;SDS011;5167;52.164;10.530;2022-09-11T09:35:17;34.85;;;15.45;;
10244;SDS011;5167;52.164;10.530;2022-09-11T09:37:47;34.95;;;16.92;;
10244;SDS011;5167;52.164;10.530;2022-09-11T09:40:13;34.38;;;16.92;;
10244;SDS011;5167;52.164;10.530;2022-09-11T09:42:51;35.35;;;17.75;;
10244;SDS011;5167;52.164;10.530;2022-09-11T09:48:26;34.85;;;17.20;;
10244;SDS011;5167;52.164;10.530;2022-09-11T09:50:57;39.88;;;18.75;;
10244;SDS011;5167;52.164;10.530;2022-09-11T09:56:17;44.00;;;18.38;;
10244;SDS011;5167;52.164;10.530;2022-09-11T09:58:47;39.35;;;18.75;;
10244;SDS011;5167;52.164;10.530;2022-09-11T10:04:29;40.50;;;19.05;;
10244;SDS011;5167;52.164;10.530;2022-09-11T10:07:05;33.13;;;18.38;;
10244;SDS011;5167;52.164;10.530;2022-09-11T10:09:32;34.90;;;17.73;;
10244;SDS011;5167;52.164;10.530;2022-09-11T10:12:02;35.50;;;17.27;;
10244;SDS011;5167;52.164;10.530;2022-09-11T10:14:41;33.28;;;17.98;;
10244;SDS011;5167;52.164;10.530;2022-09-11T10:19:54;34.75;;;18.77;;
10244;SDS011;5167;52.164;10.530;2022-09-11T10:25:16;37.17;;;17.15;;
10244;SDS011;5167;52.164;10.530;2022-09-11T10:28:32;32.50;;;16.92;;
10244;SDS011;5167;52.164;10.530;2022-09-11T10:30:39;29.20;;;15.13;;
10244;SDS011;5167;52.164;10.530;2022-09-11T10:33:15;31.40;;;15.18;;
10244;SDS011;5167;52.164;10.530;2022-09-11T10:35:48;32.67;;;15.65;;
10244;SDS011;5167;52.164;10.530;2022-09-11T10:38:16;31.13;;;14.20;;
10244;SDS011;5167;52.164;10.530;2022-09-11T10:40:57;31.40;;;15.02;;
10244;SDS011;5167;52.164;10.530;2022-09-11T10:43:39;28.30;;;14.90;;
10244;SDS011;5167;52.164;10.530;2022-09-11T10:46:30;22.73;;;13.30;;
10244;SDS011;5167;52.164;10.530;2022-09-11T10:51:33;20.73;;;11.38;;
10244;SDS011;5167;52.164;10.530;2022-09-11T10:57:06;21.10;;;10.85;;
10244;SDS011;5167;52.164;10.530;2022-09-11T11:05:04;16.88;;;9.85;;
10244;SDS011;5167;52.164;10.530;2022-09-11T11:15:39;21.35;;;11.38;;
10244;SDS011;5167;52.164;10.530;2022-09-11T11:18:15;15.63;;;9.48;;
10244;SDS011;5167;52.164;10.530;2022-09-11T11:21:01;16.70;;;9.93;;
10244;SDS011;5167;52.164;10.530;2022-09-11T11:29:40;18.60;;;10.05;;
10244;SDS011;5167;52.164;10.530;2022-09-11T11:35:15;15.75;;;8.50;;
10244;SDS011;5167;52.164;10.530;2022-09-11T11:37:58;14.88;;;9.20;;
10244;SDS011;5167;52.164;10.530;2022-09-11T11:40:42;13.52;;;8.75;;
10244;SDS011;5167;52.164;10.530;2022-09-11T11:43:12;17.92;;;9.15;;
10244;SDS011;5167;52.164;10.530;2022-09-11T11:48:23;16.00;;;8.57;;
10244;SDS011;5167;52.164;10.530;2022-09-11T11:51:24;11.95;;;7.93;;
10244;SDS011;5167;52.164;10.530;2022-09-11T11:56:43;12.15;;;7.05;;
10244;SDS011;5167;52.164;10.530;2022-09-11T12:01:39;10.55;;;6.00;;
10244;SDS011;5167;52.164;10.530;2022-09-11T12:06:56;9.02;;;5.20;;
10244;SDS011;5167;52.164;10.530;2022-09-11T12:09:23;7.80;;;5.20;;
10244;SDS011;5167;52.164;10.530;2022-09-11T12:11:50;7.45;;;4.70;;
10244;SDS011;5167;52.164;10.530;2022-09-11T12:14:29;9.32;;;5.50;;
10244;SDS011;5167;52.164;10.530;2022-09-11T12:17:16;7.55;;;5.32;;
10244;SDS011;5167;52.164;10.530;2022-09-11T12:22:35;10.95;;;6.00;;
10244;SDS011;5167;52.164;10.530;2022-09-11T12:32:43;11.45;;;5.25;;
10244;SDS011;5167;52.164;10.530;2022-09-11T12:46:01;8.98;;;5.13;;
10244;SDS011;5167;52.164;10.530;2022-09-11T12:48:38;9.18;;;5.10;;
10244;SDS011;5167;52.164;10.530;2022-09-11T12:51:21;7.70;;;4.80;;
10244;SDS011;5167;52.164;10.530;2022-09-11T12:53:49;6.15;;;5.03;;
10244;SDS011;5167;52.164;10.530;2022-09-11T12:56:18;9.63;;;5.50;;
10244;SDS011;5167;52.164;10.530;2022-09-11T12:58:57;15.77;;;5.75;;
10244;SDS011;5167;52.164;10.530;2022-09-11T13:01:42;10.68;;;5.95;;
10244;SDS011;5167;52.164;10.530;2022-09-11T13:06:42;9.75;;;6.22;;
10244;SDS011;5167;52.164;10.530;2022-09-11T13:09:16;11.27;;;5.65;;
10244;SDS011;5167;52.164;10.530;2022-09-11T13:12:36;5.53;;;4.20;;
10244;SDS011;5167;52.164;10.530;2022-09-11T13:14:56;7.47;;;4.30;;
10244;SDS011;5167;52.164;10.530;2022-09-11T13:22:40;12.70;;;6.05;;
10244;SDS011;5167;52.164;10.530;2022-09-11T13:25:27;6.43;;;4.88;;
10244;SDS011;5167;52.164;10.530;2022-09-11T13:27:52;7.80;;;4.75;;
10244;SDS011;5167;52.164;10.530;2022-09-11T13:30:21;8.75;;;6.13;;
10244;SDS011;5167;52.164;10.530;2022-09-11T13:32:49;7.40;;;4.93;;
10244;SDS011;5167;52.164;10.530;2022-09-11T13:35:25;9.68;;;5.07;;
10244;SDS011;5167;52.164;10.530;2022-09-11T13:37:56;8.80;;;4.50;;
10244;SDS011;5167;52.164;10.530;2022-09-11T13:40:30;7.50;;;4.60;;
10244;SDS011;5167;52.164;10.530;2022-09-11T13:43:02;6.20;;;4.32;;
10244;SDS011;5167;52.164;10.530;2022-09-11T13:45:28;6.72;;;4.88;;
10244;SDS011;5167;52.164;10.530;2022-09-11T13:47:54;7.07;;;4.82;;
10244;SDS011;5167;52.164;10.530;2022-09-11T13:50:20;5.95;;;4.32;;
10244;SDS011;5167;52.164;10.530;2022-09-11T13:52:47;5.35;;;3.88;;
10244;SDS011;5167;52.164;10.530;2022-09-11T13:58:00;6.95;;;4.80;;
10244;SDS011;5167;52.164;10.530;2022-09-11T14:03:02;7.07;;;4.43;;
10244;SDS011;5167;52.164;10.530;2022-09-11T14:05:30;10.35;;;5.32;;
10244;SDS011;5167;52.164;10.530;2022-09-11T14:10:26;8.05;;;4.93;;
10244;SDS011;5167;52.164;10.530;2022-09-11T14:12:59;5.90;;;4.80;;
10244;SDS011;5167;52.164;10.530;2022-09-11T14:18:01;8.18;;;5.75;;
10244;SDS011;5167;52.164;10.530;2022-09-11T14:20:29;11.07;;;5.97;;
10244;SDS011;5167;52.164;10.530;2022-09-11T14:22:58;8.63;;;5.75;;
10244;SDS011;5167;52.164;10.530;2022-09-11T14:25:29;8.07;;;5.25;;
10244;SDS011;5167;52.164;10.530;2022-09-11T14:27:55;7.28;;;4.97;;
10244;SDS011;5167;52.164;10.530;2022-09-11T14:30:39;9.57;;;5.28;;
10244;SDS011;5167;52.164;10.530;2022-09-11T14:33:26;8.98;;;5.78;;
10244;SDS011;5167;52.164;10.530;2022-09-11T14:35:51;7.82;;;4.88;;
10244;SDS011;5167;52.164;10.530;2022-09-11T14:38:23;8.70;;;4.47;;
10244;SDS011;5167;52.164;10.530;2022-09-11T14:40:51;7.50;;;4.53;;
10244;SDS011;5167;52.164;10.530;2022-09-11T14:43:25;8.27;;;4.90;;
10244;SDS011;5167;52.164;10.530;2022-09-11T14:45:57;5.55;;;4.18;;
10244;SDS011;5167;52.164;10.530;2022-09-11T14:48:24;6.18;;;4.35;;
10244;SDS011;5167;52.164;10.530;2022-09-11T14:50:51;7.30;;;4.82;;
10244;SDS011;5167;52.164;10.530;2022-09-11T14:53:18;9.13;;;5.10;;
10244;SDS011;5167;52.164;10.530;2022-09-11T14:55:57;9.57;;;4.80;;
10244;SDS011;5167;52.164;10.530;2022-09-11T14:58:25;9.13;;;5.85;;
10244;SDS011;5167;52.164;10.530;2022-09-11T15:00:51;9.18;;;5.20;;
10244;SDS011;5167;52.164;10.530;2022-09-11T15:03:18;7.95;;;4.95;;
10244;SDS011;5167;52.164;10.530;2022-09-11T15:05:44;8.30;;;5.47;;
10244;SDS011;5167;52.164;10.530;2022-09-11T15:08:11;10.07;;;5.13;;
10244;SDS011;5167;52.164;10.530;2022-09-11T15:10:37;7.63;;;5.63;;
10244;SDS011;5167;52.164;10.530;2022-09-11T15:13:03;7.60;;;5.13;;
10244;SDS011;5167;52.164;10.530;2022-09-11T15:15:29;8.27;;;4.57;;
10244;SDS011;5167;52.164;10.530;2022-09-11T15:17:57;8.85;;;4.47;;
10244;SDS011;5167;52.164;10.530;2022-09-11T15:20:22;8.52;;;4.93;;
10244;SDS011;5167;52.164;10.530;2022-09-11T15:22:51;7.45;;;4.18;;
10244;SDS011;5167;52.164;10.530;2022-09-11T15:25:17;5.53;;;4.15;;
10244;SDS011;5167;52.164;10.530;2022-09-11T15:27:43;6.53;;;4.50;;
10244;SDS011;5167;52.164;10.530;2022-09-11T15:30:08;7.85;;;4.70;;
10244;SDS011;5167;52.164;10.530;2022-09-11T15:32:36;8.07;;;4.95;;
10244;SDS011;5167;52.164;10.530;2022-09-11T15:35:01;7.57;;;4.25;;
10244;SDS011;5167;52.164;10.530;2022-09-11T15:37:27;7.32;;;4.07;;
10244;SDS011;5167;52.164;10.530;2022-09-11T15:39:53;5.90;;;3.90;;
10244;SDS011;5167;52.164;10.530;2022-09-11T15:42:18;5.70;;;4.55;;
10244;SDS011;5167;52.164;10.530;2022-09-11T15:44:44;6.53;;;4.15;;
10244;SDS011;5167;52.164;10.530;2022-09-11T15:47:10;5.40;;;3.50;;
10244;SDS011;5167;52.164;10.530;2022-09-11T15:49:40;6.78;;;4.18;;
10244;SDS011;5167;52.164;10.530;2022-09-11T15:52:08;6.07;;;4.03;;
10244;SDS011;5167;52.164;10.530;2022-09-11T15:54:34;6.43;;;4.45;;
10244;SDS011;5167;52.164;10.530;2022-09-11T15:56:59;6.32;;;4.35;;
10244;SDS011;5167;52.164;10.530;2022-09-11T15:59:25;5.57;;;4.00;;
10244;SDS011;5167;52.164;10.530;2022-09-11T16:01:51;8.15;;;4.20;;
10244;SDS011;5167;52.164;10.530;2022-09-11T16:04:17;6.72;;;4.40;;
10244;SDS011;5167;52.164;10.530;2022-09-11T16:06:46;6.55;;;4.30;;
10244;SDS011;5167;52.164;10.530;2022-09-11T16:09:14;7.07;;;4.22;;
10244;SDS011;5167;52.164;10.530;2022-09-11T16:11:42;7.05;;;4.72;;
10244;SDS011;5167;52.164;10.530;2022-09-11T16:14:16;6.45;;;3.92;;
10244;SDS011;5167;52.164;10.530;2022-09-11T16:16:44;6.72;;;4.35;;
10244;SDS011;5167;52.164;10.530;2022-09-11T16:19:16;10.23;;;5.63;;
10244;SDS011;5167;52.164;10.530;2022-09-11T16:21:44;14.23;;;6.72;;
10244;SDS011;5167;52.164;10.530;2022-09-11T16:24:10;8.38;;;5.15;;
10244;SDS011;5167;52.164;10.530;2022-09-11T16:26:36;8.10;;;4.40;;
10244;SDS011;5167;52.164;10.530;2022-09-11T16:29:06;8.95;;;5.40;;
10244;SDS011;5167;52.164;10.530;2022-09-11T16:31:32;4.82;;;4.00;;
10244;SDS011;5167;52.164;10.530;2022-09-11T16:33:58;7.45;;;4.47;;
10244;SDS011;5167;52.164;10.530;2022-09-11T16:36:26;8.90;;;4.90;;
10244;SDS011;5167;52.164;10.530;2022-09-11T16:38:52;6.78;;;4.78;;
10244;SDS011;5167;52.164;10.530;2022-09-11T16:41:19;11.50;;;5.97;;
10244;SDS011;5167;52.164;10.530;2022-09-11T16:43:46;20.35;;;9.80;;
10244;SDS011;5167;52.164;10.530;2022-09-11T16:46:14;7.20;;;4.65;;
10244;SDS011;5167;52.164;10.530;2022-09-11T16:48:42;6.13;;;4.32;;
10244;SDS011;5167;52.164;10.530;2022-09-11T16:51:08;6.55;;;4.57;;
10244;SDS011;5167;52.164;10.530;2022-09-11T16:53:35;5.57;;;3.72;;
10244;SDS011;5167;52.164;10.530;2022-09-11T16:56:02;5.53;;;4.20;;
10244;SDS011;5167;52.164;10.530;2022-09-11T16:58:29;5.82;;;3.53;;
10244;SDS011;5167;52.164;10.530;2022-09-11T17:00:55;5.72;;;4.25;;
10244;SDS011;5167;52.164;10.530;2022-09-11T17:03:21;5.80;;;3.55;;
10244;SDS011;5167;52.164;10.530;2022-09-11T17:05:47;6.40;;;4.22;;